Groesbeck, TX (76642)

7:25 PM CDT on March 24, 2017 (GMT -0500)
Rural Groesbeck | | Change Station

Elev 486 ft 31.46 °N, 96.52 °W | Updated 0 second ago

Partly Cloudy
Partly Cloudy
70.2 °F
Feels Like 70.2 °F
N
0.0
Wind Variable Wind from SSE
Gusts 0.0 mph

Today
High -- | Low -- °F
--% Chance of Precip.
Yesterday
High -- | Low -- °F
Precip. -- in
Pressure 29.83 in
Visibility 10.0 miles
Clouds Scattered Clouds 1300 ft
Scattered Clouds 4800 ft
Dew Point 68 °F
Humidity 94%
Rainfall 0.34 in
Snow Depth Not available.
7:24 AM 7:40 PM
Waning Crescent, 12% visible
METAR KLXY 250015Z AUTO 17012G21KT 10SM SCT013 SCT048 21/19 A2983 RMK AO2 LTG DSNT NE AND E T02110187
Pressure 29.83 in
Visibility 10.0 miles
Clouds Scattered Clouds 1300 ft
Scattered Clouds 4800 ft
Dew Point 68 °F
Humidity 94%
Rainfall 0.34 in
Snow Depth Not available.
7:24 AM 7:40 PM
Waning Crescent, 12% visible
METAR KLXY 250015Z AUTO 17012G21KT 10SM SCT013 SCT048 21/19 A2983 RMK AO2 LTG DSNT NE AND E T02110187

Get Severe Weather Alerts

Thanks for signing up!

Be on the lookout for a verification email in your inbox.

You'll start receiving the daily forecast at 8 AM.

×

10-Day Weather Forecast

Almanac

Astronomy

Mar. 24, 2017 Rise Set
Actual Time
Civil Twilight
Nautical Twilight
Astronomical Twilight
Moon
Length of Visible Light
Length of Day
Tomorrow will be .
, % of the Moon is Illuminated

Today's Extremes

State Highs State Lows

Community

WunderPhotos

Upload Photos

1,962,540 photos uploaded!

WunderBlog® & News

Nearby

Air Quality

  Air Quality AQ Index Pollutant
Not available.

Snow Depth

Station Depth Elevation

Earthquake Activity

City Distance Mag. Time & Date
Minimum magnitude displayed is 2.5.

Earthquake Activity

City Distance Mag. Time & Date
Minimum magnitude displayed is 2.5.

Coastal Water Temperatures

Place Temperature

Stations

Nearby Weather Stations

Station Location Temp. Windchill Dew Point Humidity Wind Precip. Elev Updated Type
                   

Watches & Warnings

There are currently no watches in effect.